Time;durP1;ratioP1;P1;durP2;ratioP2;P2;SDS_P1;SDS_P2;PMS_P1;PMS_P2;Temp;Humidity;BMP_temperature;BMP_pressure;BME280_temperature;BME280_humidity;BME280_pressure;Samples;Min_cycle;Max_cycle;Signal;HPM_P1;HPM_P2
2022/11/24 00:01:35;;;;;;;;;17.00;13.67;;;;;0.81;90.85;97518.03;4908911;28;101746;-71
2022/11/24 00:04:04;;;;;;;;;13.33;10.33;;;;;0.84;90.25;97524.88;4905761;28;101754;-72
2022/11/24 00:06:33;;;;;;;;;13.50;10.00;;;;;0.89;89.89;97520.72;4906214;28;101964;-71
2022/11/24 00:09:02;;;;;;;;;14.00;8.00;;;;;0.91;89.95;97525.88;4907666;28;103557;-71
2022/11/24 00:11:32;;;;;;;;;7.75;6.00;;;;;0.94;89.26;97528.22;4901321;28;101648;-72
2022/11/24 00:14:00;;;;;;;;;5.50;4.00;;;;;0.98;88.77;97526.03;4907300;28;101629;-71
2022/11/24 00:16:29;;;;;;;;;6.00;5.25;;;;;0.93;88.85;97507.91;4907793;28;101592;-71
2022/11/24 00:18:59;;;;;;;;;13.00;5.50;;;;;1.01;89.21;97525.69;4898207;28;103404;-71
2022/11/24 00:21:28;;;;;;;;;5.75;4.00;;;;;1.01;88.81;97521.22;4902135;28;101716;-71
2022/11/24 00:23:55;;;;;;;;;6.00;5.00;;;;;1.07;88.93;97535.69;4918554;28;101718;-72
2022/11/24 00:26:28;;;;;;;;;5.00;2.25;;;;;0.97;87.38;97524.38;4904739;28;102627;-72
2022/11/24 00:29:04;;;;;;;;;9.75;6.25;;;;;1.05;88.08;97545.66;4903413;28;103372;-72
2022/11/24 00:31:36;;;;;;;;;6.00;4.75;;;;;1.06;88.53;97545.50;4906709;28;101694;-72
2022/11/24 00:34:10;;;;;;;;;8.00;6.50;;;;;1.09;88.10;97539.81;4902438;28;101672;-72
2022/11/24 00:36:38;;;;;;;;;4.50;3.75;;;;;1.12;87.89;97555.47;4903650;28;102879;-72
2022/11/24 00:39:11;;;;;;;;;6.00;5.00;;;;;1.10;88.06;97560.13;4908682;28;109388;-73
2022/11/24 00:41:38;;;;;;;;;5.75;5.75;;;;;1.09;87.91;97565.63;4899601;28;101707;-72
2022/11/24 00:44:06;;;;;;;;;6.50;4.00;;;;;1.11;88.30;97567.13;4901904;28;103028;-73
2022/11/24 00:46:33;;;;;;;;;14.00;10.00;;;;;1.04;87.79;97565.28;4903571;28;101775;-72
2022/11/24 00:49:01;;;;;;;;;8.75;7.25;;;;;1.04;88.01;97567.94;4903002;28;104851;-72
2022/11/24 00:51:31;;;;;;;;;5.50;5.50;;;;;1.04;88.03;97567.94;4905390;28;102900;-72
2022/11/24 00:54:00;;;;;;;;;6.75;5.75;;;;;1.05;87.64;97559.78;4903381;28;102765;-72
2022/11/24 00:56:28;;;;;;;;;8.75;5.25;;;;;1.08;87.59;97562.13;4903357;28;101788;-72
2022/11/24 00:58:56;;;;;;;;;9.00;8.00;;;;;1.00;87.94;97540.84;4902757;28;103406;-72
2022/11/24 01:01:26;;;;;;;;;9.25;5.50;;;;;1.13;86.41;97561.63;4904686;28;101974;-72
2022/11/24 01:03:56;;;;;;;;;9.00;7.00;;;;;1.12;87.70;97565.28;4898486;28;102218;-73
2022/11/24 01:06:25;;;;;;;;;5.50;5.50;;;;;1.15;87.45;97559.63;4908375;28;101999;-72
2022/11/24 01:08:53;;;;;;;;;8.50;3.25;;;;;1.12;86.50;97565.28;4901872;28;103532;-72
2022/11/24 01:11:23;;;;;;;;;4.75;4.75;;;;;1.05;87.31;97543.00;4903200;28;103143;-72
2022/11/24 01:13:58;;;;;;;;;5.25;5.00;;;;;1.15;86.85;97554.31;4904951;28;102018;-72
2022/11/24 01:16:28;;;;;;;;;2.25;2.00;;;;;1.17;86.42;97554.97;4907290;28;102527;-72
2022/11/24 01:18:55;;;;;;;;;5.25;3.00;;;;;1.15;86.93;97554.31;4900136;28;103675;-72
2022/11/24 01:21:23;;;;;;;;;4.25;3.00;;;;;1.18;86.99;97567.28;4905277;28;103156;-73
2022/11/24 01:23:50;;;;;;;;;3.50;2.00;;;;;1.12;86.39;97566.13;4901019;28;102194;-72
2022/11/24 01:26:20;;;;;;;;;5.25;3.25;;;;;1.17;86.87;97571.75;4901590;28;102109;-73
2022/11/24 01:28:52;;;;;;;;;3.25;3.25;;;;;1.08;86.45;97559.44;4902000;28;103502;-73
2022/11/24 01:31:20;;;;;;;;;4.00;2.00;;;;;1.10;86.17;97577.94;4904562;28;101939;-72
2022/11/24 01:33:47;;;;;;;;;3.25;3.25;;;;;1.10;86.16;97584.09;4905667;28;101700;-72
2022/11/24 01:36:14;;;;;;;;;17.75;14.00;;;;;1.02;87.21;97581.44;4907728;28;101847;-73
2022/11/24 01:38:41;;;;;;;;;13.50;12.00;;;;;0.96;86.88;97581.25;4904678;28;103342;-73
2022/11/24 01:41:14;;;;;;;;;14.00;13.00;;;;;0.97;87.58;97590.91;4899428;28;101816;-72
2022/11/24 01:43:43;;;;;;;;;11.50;11.00;;;;;0.98;88.15;97589.91;4898137;28;101716;-71
2022/11/24 01:46:28;;;;;;;;;6.33;5.33;;;;;1.06;87.34;97598.72;4905813;28;101607;-72
2022/11/24 01:49:08;;;;;;;;;9.00;5.00;;;;;1.07;87.56;97592.41;4898721;28;108083;-72
2022/11/24 01:51:41;;;;;;;;;15.33;9.67;;;;;1.00;87.20;97582.59;4906512;28;102701;-72
2022/11/24 01:54:14;;;;;;;;;15.67;13.67;;;;;0.88;87.67;97592.72;4907617;28;101559;-73
2022/11/24 01:56:46;;;;;;;;;14.25;10.25;;;;;0.93;87.95;97593.06;4902557;28;101952;-72
2022/11/24 01:59:16;;;;;;;;;13.33;9.67;;;;;0.95;88.16;97600.88;4904182;28;103515;-72
2022/11/24 02:01:44;;;;;;;;;9.00;5.50;;;;;0.89;87.90;97583.75;4901622;28;101971;-72
2022/11/24 02:04:16;;;;;;;;;6.00;6.00;;;;;0.77;88.14;97559.28;4900775;28;101582;-71
2022/11/24 02:06:55;;;;;;;;;12.00;8.50;;;;;0.96;87.38;97590.06;4897939;28;101627;-73
2022/11/24 02:09:56;;;;;;;;;12.33;9.00;;;;;0.93;87.66;97592.25;4904044;28;102472;-72
2022/11/24 02:12:50;;;;;;;;;11.75;8.00;;;;;1.00;88.37;97590.56;4900552;28;102061;-73
2022/11/24 02:15:34;;;;;;;;;12.50;10.00;;;;;0.84;88.03;97570.94;4903324;28;101847;-73
2022/11/24 02:18:19;;;;;;;;;13.00;6.25;;;;;0.99;88.17;97591.59;4899539;28;101892;-72
2022/11/24 02:21:02;;;;;;;;;6.00;6.00;;;;;0.93;87.75;97582.44;4911384;28;107879;-72
2022/11/24 02:24:37;;;;;;;;;7.50;4.25;;;;;1.06;87.61;97595.22;4898304;28;101962;-72
2022/11/24 02:27:22;;;;;;;;;5.75;5.00;;;;;1.04;87.53;97599.88;4898434;28;102058;-72
2022/11/24 02:30:04;;;;;;;;;4.00;4.00;;;;;1.06;87.71;97603.22;4908111;28;101751;-73
2022/11/24 02:32:32;;;;;;;;;2.25;2.00;;;;;0.82;87.49;97551.66;4896215;28;103328;-72
2022/11/24 02:35:04;;;;;;;;;5.00;3.25;;;;;1.11;87.88;97592.91;4907857;28;101934;-71
2022/11/24 02:37:32;;;;;;;;;5.50;5.50;;;;;1.12;87.98;97592.75;4904327;28;101592;-72
2022/11/24 02:39:59;;;;;;;;;10.00;7.25;;;;;1.13;87.38;97597.06;4898628;28;102682;-72
2022/11/24 02:42:30;;;;;;;;;8.75;6.50;;;;;1.16;87.25;97602.06;4900070;28;103649;-72
2022/11/24 02:44:59;;;;;;;;;4.75;4.75;;;;;1.20;87.61;97607.88;4901804;28;101574;-72
2022/11/24 02:47:27;;;;;;;;;5.00;2.75;;;;;1.17;87.27;97600.25;4904056;28;103777;-72
2022/11/24 02:49:54;;;;;;;;;9.00;9.00;;;;;1.08;87.46;97596.72;4900715;28;101951;-72
2022/11/24 02:52:22;;;;;;;;;12.67;10.00;;;;;1.08;87.95;97601.25;4900487;28;102574;-72
2022/11/24 02:54:49;;;;;;;;;5.25;5.00;;;;;1.08;88.63;97601.25;4906591;28;101646;-72
2022/11/24 02:57:16;;;;;;;;;9.00;5.25;;;;;1.02;88.83;97596.56;4897104;28;101693;-72
2022/11/24 02:59:43;;;;;;;;;15.00;12.75;;;;;1.02;88.35;97591.25;4903651;28;101588;-71
2022/11/24 03:02:10;;;;;;;;;5.25;4.50;;;;;0.85;89.00;97558.47;4902522;28;103402;-74
2022/11/24 03:04:37;;;;;;;;;4.75;4.00;;;;;1.13;88.68;97604.19;4905436;28;101495;-74
2022/11/24 03:07:04;;;;;;;;;11.00;9.00;;;;;1.15;88.55;97596.91;4895208;28;101414;-72
2022/11/24 03:09:32;;;;;;;;;7.50;7.00;;;;;1.17;88.25;97595.72;4904685;28;102118;-71
2022/11/24 03:11:59;;;;;;;;;9.75;9.50;;;;;1.11;87.71;97596.41;4904961;28;103329;-71
2022/11/24 03:14:26;;;;;;;;;21.00;13.33;;;;;1.01;88.70;97601.06;4904253;28;101905;-72
2022/11/24 03:16:53;;;;;;;;;10.25;5.50;;;;;1.05;88.54;97593.56;4904487;28;101868;-71
2022/11/24 03:19:20;;;;;;;;;10.75;6.50;;;;;1.07;88.59;97597.75;4897340;28;101967;-74
2022/11/24 03:21:47;;;;;;;;;9.00;7.50;;;;;1.11;89.08;97600.91;4905553;28;103353;-74
2022/11/24 03:24:14;;;;;;;;;7.50;5.25;;;;;1.14;88.77;97595.22;4897455;28;102351;-72
2022/11/24 03:26:41;;;;;;;;;8.00;3.25;;;;;1.18;88.49;97592.06;4906984;28;101828;-72
2022/11/24 03:29:09;;;;;;;;;7.25;5.50;;;;;1.15;88.00;97595.06;4905870;28;101915;-72
2022/11/24 03:31:36;;;;;;;;;4.00;3.00;;;;;1.17;88.03;97610.88;4905002;28;103424;-72
2022/11/24 03:34:03;;;;;;;;;4.00;4.00;;;;;1.11;88.71;97587.59;4909742;28;101540;-72
2022/11/24 03:36:30;;;;;;;;;5.00;3.75;;;;;1.17;88.72;97606.38;4906434;28;101678;-72
2022/11/24 03:38:57;;;;;;;;;4.25;1.00;;;;;1.17;89.05;97600.25;4905847;28;102261;-72
2022/11/24 03:41:24;;;;;;;;;3.75;3.75;;;;;1.17;88.39;97606.38;4908647;28;103556;-72
2022/11/24 03:43:51;;;;;;;;;7.50;5.00;;;;;1.17;88.38;97611.69;4906022;28;101741;-72
2022/11/24 03:46:18;;;;;;;;;5.00;3.50;;;;;1.19;88.63;97615.03;4902795;28;101671;-72
2022/11/24 03:48:46;;;;;;;;;7.00;6.25;;;;;1.21;88.49;97612.22;4903926;28;101716;-72
2022/11/24 03:51:13;;;;;;;;;6.00;5.00;;;;;1.21;87.98;97617.53;4906017;28;103414;-71
2022/11/24 03:53:40;;;;;;;;;3.50;2.00;;;;;1.15;88.49;97610.22;4903250;28;102089;-72
2022/11/24 03:56:07;;;;;;;;;1.50;1.25;;;;;1.24;88.74;97617.19;4904573;28;102988;-72
2022/11/24 03:58:34;;;;;;;;;3.75;3.75;;;;;1.24;88.14;97618.03;4902378;28;101987;-72
2022/11/24 04:01:02;;;;;;;;;1.50;1.00;;;;;1.27;88.43;97619.50;4911517;28;103585;-72
2022/11/24 04:03:29;;;;;;;;;3.25;1.00;;;;;1.29;87.97;97618.38;4898679;28;101537;-72
2022/11/24 04:05:56;;;;;;;;;1.25;0.00;;;;;1.29;88.41;97625.53;4906987;28;101950;-72
2022/11/24 04:08:24;;;;;;;;;1.75;1.00;;;;;1.29;88.29;97628.19;4904124;28;101675;-72
2022/11/24 04:10:53;;;;;;;;;0.25;0.25;;;;;1.28;88.21;97623.84;4907162;28;103452;-72
2022/11/24 04:13:22;;;;;;;;;2.00;2.00;;;;;1.28;87.71;97631.84;4908193;28;101851;-72
2022/11/24 04:15:50;;;;;;;;;3.50;3.50;;;;;1.27;88.33;97631.00;4909277;28;101867;-72
2022/11/24 04:18:18;;;;;;;;;1.00;1.00;;;;;1.25;88.34;97629.50;4911217;28;102027;-73
2022/11/24 04:20:49;;;;;;;;;1.75;1.25;;;;;1.20;88.30;97624.69;4902888;28;103523;-73
2022/11/24 04:23:16;;;;;;;;;5.25;5.25;;;;;1.28;88.41;97629.19;4898748;28;102647;-72
2022/11/24 04:25:43;;;;;;;;;6.00;5.75;;;;;1.25;89.17;97635.69;4899763;28;102169;-72
2022/11/24 04:28:10;;;;;;;;;6.00;2.00;;;;;1.23;89.34;97634.16;4905263;28;102130;-72
2022/11/24 04:30:41;;;;;;;;;2.75;2.00;;;;;1.19;89.10;97644.31;4907553;28;111366;-73
2022/11/24 04:33:08;;;;;;;;;2.50;2.50;;;;;1.20;88.86;97638.00;4904562;28;102382;-73
2022/11/24 04:35:35;;;;;;;;;1.75;1.75;;;;;1.16;89.43;97626.03;4902682;28;101711;-73
2022/11/24 04:38:02;;;;;;;;;5.00;4.00;;;;;1.01;88.57;97605.53;4900270;28;101676;-72
2022/11/24 04:40:29;;;;;;;;;4.25;1.00;;;;;1.25;88.86;97646.31;4903250;28;103402;-72
2022/11/24 04:42:56;;;;;;;;;2.00;2.00;;;;;1.25;89.09;97641.00;4906171;28;101999;-72
2022/11/24 04:45:23;;;;;;;;;1.00;1.00;;;;;1.27;88.73;97640.81;4903267;28;102927;-72
2022/11/24 04:47:51;;;;;;;;;4.50;2.00;;;;;1.27;88.91;97643.47;4900609;28;101952;-72
2022/11/24 04:50:18;;;;;;;;;5.00;4.25;;;;;1.23;89.02;97643.00;4898223;28;103410;-72
2022/11/24 04:52:45;;;;;;;;;1.00;0.50;;;;;1.29;89.18;97646.81;4895701;28;104253;-70
2022/11/24 04:55:12;;;;;;;;;5.75;3.25;;;;;1.29;88.44;97646.81;4906348;28;101562;-72
2022/11/24 04:57:39;;;;;;;;;3.00;3.00;;;;;1.29;88.74;97652.16;4906160;28;103127;-72
2022/11/24 05:00:07;;;;;;;;;2.00;2.00;;;;;1.28;88.35;97655.81;4899941;28;103425;-72
2022/11/24 05:02:35;;;;;;;;;1.50;0.00;;;;;1.29;89.48;97662.78;4903821;28;101800;-72
2022/11/24 05:05:04;;;;;;;;;1.00;1.00;;;;;1.27;88.75;97656.78;4910222;28;101720;-72
2022/11/24 05:07:31;;;;;;;;;4.00;4.00;;;;;1.30;88.26;97675.97;4901283;28;102867;-72
2022/11/24 05:12:44;;;;;;;;;6.00;3.25;;;;;1.31;88.69;97685.59;4898897;28;101590;-72
2022/11/24 05:15:16;;;;;;;;;6.50;5.00;;;;;1.28;89.00;97672.63;4893928;28;101852;-71
2022/11/24 05:17:43;;;;;;;;;1.75;1.00;;;;;1.30;88.80;97670.63;4902606;28;101541;-72
2022/11/24 05:20:10;;;;;;;;;0.75;0.00;;;;;1.32;88.97;97683.75;4903007;28;107990;-72
2022/11/24 05:22:37;;;;;;;;;1.00;1.00;;;;;1.32;88.79;97679.28;4904386;28;101895;-72
2022/11/24 05:25:05;;;;;;;;;1.00;0.75;;;;;1.33;89.02;97682.75;4902192;28;101880;-72
2022/11/24 05:27:32;;;;;;;;;0.25;0.00;;;;;1.35;89.12;97678.13;4902662;28;102017;-72
2022/11/24 05:29:59;;;;;;;;;2.00;2.00;;;;;1.34;89.33;97679.13;4891140;28;103592;-72
2022/11/24 05:32:27;;;;;;;;;5.75;2.00;;;;;1.27;89.84;97683.41;4901730;28;102010;-72
2022/11/24 05:34:54;;;;;;;;;10.75;7.75;;;;;1.22;89.88;97683.06;4894211;28;101954;-72
2022/11/24 05:37:21;;;;;;;;;3.25;2.00;;;;;1.26;90.40;97681.78;4901239;28;101833;-72
2022/11/24 05:39:48;;;;;;;;;3.75;1.00;;;;;1.30;90.49;97697.25;4901034;28;103328;-71
2022/11/24 05:45:01;;;;;;;;;3.50;2.25;;;;;1.33;89.63;97696.09;4900426;28;103117;-72
2022/11/24 05:47:27;;;;;;;;;8.00;7.25;;;;;1.24;90.65;97702.41;4900869;28;101580;-72
2022/11/24 05:49:55;;;;;;;;;4.75;4.75;;;;;1.25;89.99;97696.91;4900254;28;103469;-72
2022/11/24 05:52:22;;;;;;;;;7.25;5.75;;;;;1.29;90.38;97702.75;4901833;28;101768;-72
2022/11/24 05:54:49;;;;;;;;;3.50;2.00;;;;;1.31;89.72;97703.38;4899565;28;102268;-72
2022/11/24 05:57:17;;;;;;;;;2.50;1.00;;;;;1.21;89.93;97687.59;4901950;28;103429;-72
2022/11/24 05:59:44;;;;;;;;;2.25;2.00;;;;;1.34;89.86;97709.25;4906850;28;103464;-72
2022/11/24 06:02:11;;;;;;;;;1.50;1.25;;;;;1.28;90.36;97704.56;4906376;28;101976;-72
2022/11/24 06:04:39;;;;;;;;;2.75;2.00;;;;;1.37;89.74;97708.06;4901527;28;101786;-72
2022/11/24 06:07:07;;;;;;;;;2.50;2.00;;;;;1.34;90.58;97711.06;4907800;28;101732;-74
2022/11/24 06:09:39;;;;;;;;;15.50;12.25;;;;;1.28;90.59;97717.88;4893388;28;103528;-74
2022/11/24 06:12:06;;;;;;;;;11.50;10.25;;;;;1.18;90.59;97714.53;4899380;28;102274;-73
2022/11/24 06:14:34;;;;;;;;;6.00;5.00;;;;;1.27;91.29;97718.03;4892267;28;101911;-73
2022/11/24 06:17:02;;;;;;;;;5.25;5.00;;;;;1.31;90.87;97717.53;4896264;28;101742;-74
2022/11/24 06:19:30;;;;;;;;;5.25;4.75;;;;;1.32;90.25;97719.22;4894218;28;103400;-73
2022/11/24 06:21:56;;;;;;;;;3.00;2.00;;;;;1.35;90.35;97726.84;4895831;28;101852;-73
2022/11/24 06:24:23;;;;;;;;;5.50;5.50;;;;;1.37;89.94;97729.38;4904675;28;102113;-73
2022/11/24 06:26:50;;;;;;;;;3.00;2.00;;;;;1.40;90.38;97736.22;4901291;28;101891;-73
2022/11/24 06:29:17;;;;;;;;;26.67;25.00;;;;;1.18;90.33;97730.50;4897949;28;103158;-73
2022/11/24 06:31:44;;;;;;;;;23.33;23.33;;;;;1.17;91.23;97739.47;4898512;28;101800;-73
2022/11/24 06:34:12;;;;;;;;;39.67;35.00;;;;;1.06;91.22;97738.97;4899869;28;101925;-73
2022/11/24 06:36:38;;;;;;;;;35.00;29.00;;;;;1.07;91.81;97737.97;4916843;28;101994;-73
2022/11/24 06:39:06;;;;;;;;;27.67;23.67;;;;;1.09;92.45;97735.97;4898292;28;103473;-73
2022/11/24 06:41:33;;;;;;;;;39.00;26.00;;;;;1.06;92.68;97742.47;4901912;28;101832;-74
2022/11/24 06:44:02;;;;;;;;;33.00;23.00;;;;;1.05;92.41;97737.28;4897126;28;102064;-73
2022/11/24 06:46:29;;;;;;;;;21.33;16.00;;;;;1.02;92.41;97738.47;4893911;28;101645;-73
2022/11/24 06:48:58;;;;;;;;;40.00;31.67;;;;;0.97;92.48;97747.94;4897441;28;102840;-74
2022/11/24 06:51:26;;;;;;;;;29.67;25.67;;;;;1.01;92.57;97750.09;4895738;28;102275;-74
2022/11/24 06:53:53;;;;;;;;;22.00;20.00;;;;;1.11;92.65;97758.78;4899571;28;101559;-73
2022/11/24 06:56:20;;;;;;;;;17.00;14.67;;;;;1.18;92.71;97756.28;4893326;28;101652;-73
2022/11/24 06:58:50;;;;;;;;;13.25;12.00;;;;;1.20;92.48;97755.16;4901927;28;103481;-73
2022/11/24 07:01:28;;;;;;;;;21.00;14.75;;;;;1.15;92.03;97756.63;4901394;28;101774;-73
2022/11/24 07:03:56;;;;;;;;;25.67;18.67;;;;;1.14;92.35;97746.97;4904774;28;101591;-74
2022/11/24 07:06:25;;;;;;;;;24.33;18.33;;;;;1.14;92.27;97760.28;4908221;28;101861;-73
2022/11/24 07:08:52;;;;;;;;;23.00;18.33;;;;;1.06;91.99;97763.75;4907326;28;103346;-73
2022/11/24 07:11:21;;;;;;;;;22.67;20.33;;;;;0.98;92.48;97754.91;4900183;28;101623;-73
2022/11/24 07:13:50;;;;;;;;;14.75;13.00;;;;;1.05;91.63;97762.09;4898187;28;101759;-73
2022/11/24 07:16:26;;;;;;;;;25.00;22.67;;;;;0.99;92.43;97772.56;4895223;28;105899;-73
2022/11/24 07:18:53;;;;;;;;;26.33;21.67;;;;;0.94;92.70;97766.88;4901212;28;103644;-74
2022/11/24 07:21:22;;;;;;;;;21.00;16.67;;;;;0.96;93.28;97771.03;4899091;28;101850;-74
2022/11/24 07:23:54;;;;;;;;;31.33;27.67;;;;;0.83;93.59;97766.19;4901486;28;101784;-73
2022/11/24 07:26:22;;;;;;;;;45.00;35.67;;;;;0.82;93.86;97777.81;4907687;28;101919;-73
2022/11/24 07:28:49;;;;;;;;;16.33;14.67;;;;;0.85;94.13;97766.03;4902594;28;103479;-73
2022/11/24 07:31:23;;;;;;;;;22.67;17.00;;;;;0.99;93.34;97777.88;4903829;28;101860;-73
2022/11/24 07:33:53;;;;;;;;;29.33;22.67;;;;;0.93;93.36;97783.84;4900915;28;106574;-73
2022/11/24 07:36:21;;;;;;;;;35.67;29.67;;;;;0.89;93.12;97784.19;4893826;28;102032;-73
2022/11/24 07:38:48;;;;;;;;;45.67;35.00;;;;;0.77;93.52;97780.09;4901028;28;103404;-73
2022/11/24 07:41:18;;;;;;;;;36.00;29.67;;;;;0.82;93.62;97780.47;4905255;28;101843;-74
2022/11/24 07:43:45;;;;;;;;;37.33;28.33;;;;;0.81;93.82;97784.13;4901667;28;102030;-73
2022/11/24 07:46:15;;;;;;;;;57.33;43.67;;;;;0.75;94.42;97790.09;4907899;28;102448;-73
2022/11/24 07:48:44;;;;;;;;;40.00;28.67;;;;;0.84;94.87;97788.31;4905311;28;108044;-74
2022/11/24 07:51:11;;;;;;;;;50.33;39.00;;;;;0.67;94.05;97768.78;4904278;28;101768;-72
2022/11/24 07:53:38;;;;;;;;;40.33;35.33;;;;;0.70;93.99;97784.41;4899774;28;101760;-72
2022/11/24 07:56:06;;;;;;;;;46.33;36.33;;;;;0.68;94.03;97791.72;4906298;28;102494;-72
2022/11/24 07:58:35;;;;;;;;;55.00;38.00;;;;;0.68;93.81;97793.53;4893647;28;103616;-72
2022/11/24 08:01:16;;;;;;;;;43.33;35.67;;;;;0.75;93.78;97802.56;4903192;28;102024;-72
2022/11/24 08:03:45;;;;;;;;;32.33;24.67;;;;;0.83;93.09;97800.78;4894461;28;101840;-72
2022/11/24 08:06:14;;;;;;;;;32.00;22.00;;;;;0.75;92.75;97787.44;4901323;28;101867;-72
2022/11/24 08:08:53;;;;;;;;;33.33;27.67;;;;;0.84;92.94;97794.47;4901204;28;107998;-72
2022/11/24 08:11:21;;;;;;;;;23.67;18.33;;;;;0.90;92.66;97796.47;4900853;28;102839;-72
2022/11/24 08:13:48;;;;;;;;;19.00;17.00;;;;;1.02;92.79;97804.16;4897697;28;101558;-72
2022/11/24 08:16:17;;;;;;;;;28.00;20.00;;;;;1.01;92.07;97811.31;4905720;28;101971;-73
2022/11/24 08:18:49;;;;;;;;;13.33;13.33;;;;;1.06;91.28;97813.50;4895278;28;108705;-72
2022/11/24 08:21:16;;;;;;;;;31.33;25.00;;;;;1.03;91.36;97811.16;4898214;28;101969;-72
2022/11/24 08:23:43;;;;;;;;;24.00;19.00;;;;;1.05;91.90;97803.84;4904706;28;101867;-72
2022/11/24 08:26:15;;;;;;;;;25.67;20.00;;;;;1.05;91.50;97810.00;4911545;28;101903;-72
2022/11/24 08:28:43;;;;;;;;;22.00;17.00;;;;;1.12;91.50;97816.38;4902125;28;108172;-72
2022/11/24 08:31:12;;;;;;;;;20.67;17.00;;;;;1.12;90.89;97815.53;4906331;28;101894;-72
2022/11/24 08:33:41;;;;;;;;;14.00;11.25;;;;;1.16;91.56;97812.38;4898379;28;101737;-72
2022/11/24 08:36:12;;;;;;;;;25.67;16.00;;;;;1.11;90.87;97817.34;4909476;28;101620;-72
2022/11/24 08:38:39;;;;;;;;;25.67;21.00;;;;;0.81;91.66;97784.13;4899530;28;103623;-72
2022/11/24 08:41:12;;;;;;;;;23.67;20.67;;;;;1.09;90.98;97826.47;4910240;28;101905;-72
2022/11/24 08:43:39;;;;;;;;;37.33;24.67;;;;;1.04;91.84;97834.09;4907647;28;101720;-72
2022/11/24 08:46:09;;;;;;;;;31.67;26.33;;;;;1.02;91.81;97830.78;4909171;28;101910;-72
2022/11/24 08:48:37;;;;;;;;;21.33;18.00;;;;;1.16;92.18;97838.16;4883268;28;103789;-72
2022/11/24 08:51:09;;;;;;;;;22.67;14.67;;;;;1.22;91.34;97837.50;4879486;28;102715;-72
2022/11/24 08:53:37;;;;;;;;;22.00;13.33;;;;;1.31;90.73;97839.19;4884112;28;101843;-72
2022/11/24 08:56:05;;;;;;;;;18.00;13.67;;;;;1.22;90.76;97816.19;4886482;28;101826;-72
2022/11/24 08:58:32;;;;;;;;;38.00;30.33;;;;;1.12;90.45;97842.16;4874306;28;103369;-71
2022/11/24 09:01:06;;;;;;;;;32.00;26.67;;;;;1.19;91.69;97841.34;4886577;28;101892;-72
2022/11/24 09:03:34;;;;;;;;;28.00;21.00;;;;;1.22;90.30;97845.50;4886158;28;101775;-72
2022/11/24 09:06:02;;;;;;;;;41.33;35.33;;;;;1.14;90.76;97846.31;4880023;28;102007;-72
2022/11/24 09:08:30;;;;;;;;;36.33;31.67;;;;;1.07;91.31;97845.28;4873850;28;103348;-70
2022/11/24 09:11:16;;;;;;;;;39.67;36.00;;;;;0.92;91.52;97846.03;4887161;28;101806;-72
2022/11/24 09:13:43;;;;;;;;;33.67;26.67;;;;;1.02;91.51;97846.75;4888846;28;101548;-72
2022/11/24 09:16:19;;;;;;;;;33.67;30.00;;;;;0.99;91.23;97837.25;4885249;28;101960;-72
2022/11/24 09:18:46;;;;;;;;;34.00;30.33;;;;;1.03;91.12;97848.44;4872054;28;108840;-70
2022/11/24 09:21:17;;;;;;;;;35.00;30.67;;;;;0.98;90.89;97829.44;4890815;28;101835;-72
2022/11/24 09:23:47;;;;;;;;;56.67;46.33;;;;;0.90;90.65;97847.03;4886050;28;101910;-72
2022/11/24 09:26:23;;;;;;;;;33.00;29.33;;;;;1.06;91.82;97848.09;4883171;28;101887;-73
2022/11/24 09:28:53;;;;;;;;;47.33;37.33;;;;;1.03;90.78;97848.44;4883789;28;107945;-72
2022/11/24 09:31:22;;;;;;;;;24.67;17.00;;;;;1.12;91.15;97844.81;4876788;28;102812;-72
2022/11/24 09:33:51;;;;;;;;;44.33;39.00;;;;;1.14;90.42;97848.13;4880234;28;101843;-72
2022/11/24 09:36:18;;;;;;;;;41.33;31.33;;;;;1.10;90.49;97833.47;4888011;28;101859;-72
2022/11/24 09:38:45;;;;;;;;;40.67;37.67;;;;;1.20;90.91;97848.34;4880653;28;103481;-73
2022/11/24 09:41:42;;;;;;;;;52.00;43.00;;;;;1.21;90.14;97855.34;4884840;28;101744;-72
2022/11/24 09:44:40;;;;;;;;;62.67;40.00;;;;;1.23;90.58;97852.50;4880819;28;101834;-72
2022/11/24 09:47:35;;;;;;;;;46.00;37.00;;;;;1.17;90.75;97845.16;4886605;28;102453;-72
2022/11/24 09:50:05;;;;;;;;;65.00;48.33;;;;;1.11;90.93;97843.13;4906732;28;107895;-73
2022/11/24 09:52:38;;;;;;;;;51.67;39.67;;;;;1.03;91.44;97841.28;4907453;28;101924;-72
2022/11/24 09:55:24;;;;;;;;;58.33;44.00;;;;;1.00;91.29;97838.91;4896406;28;102050;-72
2022/11/24 09:58:01;;;;;;;;;57.00;40.33;;;;;0.92;92.36;97841.56;4899566;28;102244;-72
2022/11/24 10:00:28;;;;;;;;;47.00;39.67;;;;;0.98;91.69;97840.09;4908317;28;103507;-72
2022/11/24 10:02:56;;;;;;;;;50.67;42.00;;;;;1.01;91.36;97845.91;4902244;28;101865;-72
2022/11/24 10:05:26;;;;;;;;;48.00;40.00;;;;;0.92;91.95;97846.03;4897021;28;101610;-71
2022/11/24 10:08:07;;;;;;;;;54.33;41.33;;;;;0.89;91.55;97847.19;4901439;28;101575;-72
2022/11/24 10:10:52;;;;;;;;;65.00;44.00;;;;;0.74;92.44;97844.28;4900928;28;103657;-72
2022/11/24 10:13:37;;;;;;;;;71.00;48.00;;;;;0.70;93.32;97848.25;4902318;28;101969;-71
2022/11/24 10:16:13;;;;;;;;;77.00;56.67;;;;;0.64;93.34;97848.88;4899081;28;101886;-71
2022/11/24 10:18:59;;;;;;;;;64.33;49.67;;;;;0.53;94.38;97814.59;4908183;28;101716;-71
2022/11/24 10:22:04;;;;;;;;;74.67;53.00;;;;;0.62;93.62;97839.41;4906186;28;108148;-71
2022/11/24 10:24:49;;;;;;;;;75.75;57.00;;;;;0.57;93.66;97842.53;4899730;28;102040;-72
2022/11/24 10:27:18;;;;;;;;;68.67;51.00;;;;;0.53;94.23;97840.34;4896357;28;101812;-73
2022/11/24 10:29:49;;;;;;;;;74.00;54.67;;;;;0.63;94.82;97841.88;4900231;28;101537;-72
2022/11/24 10:32:22;;;;;;;;;77.00;57.75;;;;;0.73;93.48;97841.78;4892943;28;107887;-72
2022/11/24 10:34:49;;;;;;;;;81.25;60.25;;;;;0.64;93.56;97842.72;4892453;28;101862;-73
2022/11/24 10:37:25;;;;;;;;;75.67;54.00;;;;;0.61;93.67;97843.88;4910309;28;101890;-72
2022/11/24 10:40:20;;;;;;;;;78.25;58.00;;;;;0.56;94.06;97840.84;4906467;28;101565;-72
2022/11/24 10:43:10;;;;;;;;;79.00;54.33;;;;;0.51;93.77;97840.50;4905553;28;108941;-73
2022/11/24 10:45:38;;;;;;;;;62.67;47.00;;;;;0.45;94.16;97822.53;4902224;28;101847;-72
2022/11/24 10:48:15;;;;;;;;;70.33;51.33;;;;;0.59;93.77;97843.19;4903457;28;102974;-72
2022/11/24 10:50:42;;;;;;;;;65.33;45.67;;;;;0.68;94.07;97854.72;4904433;28;101671;-73
2022/11/24 10:53:32;;;;;;;;;70.67;51.67;;;;;0.54;94.22;97847.34;4903413;28;103299;-72
2022/11/24 10:56:02;;;;;;;;;69.00;48.33;;;;;0.52;94.09;97849.31;4899439;28;101905;-73
2022/11/24 10:58:37;;;;;;;;;71.67;50.00;;;;;0.50;94.31;97852.13;4907764;28;101957;-73
2022/11/24 11:01:13;;;;;;;;;67.00;50.00;;;;;0.47;94.53;97849.78;4905904;28;101867;-73
2022/11/24 11:03:51;;;;;;;;;68.67;52.00;;;;;0.44;94.57;97850.09;4905267;28;103407;-73
2022/11/24 11:06:23;;;;;;;;;64.33;51.00;;;;;0.46;94.98;97845.44;4900478;28;102297;-72
2022/11/24 11:09:06;;;;;;;;;66.33;45.33;;;;;0.49;94.01;97855.78;4897394;28;102473;-72
2022/11/24 11:11:40;;;;;;;;;60.33;47.00;;;;;0.50;94.00;97852.13;4901390;28;101668;-73
2022/11/24 11:14:11;;;;;;;;;64.67;49.33;;;;;0.51;94.08;97861.75;4899312;28;103323;-73
2022/11/24 11:16:59;;;;;;;;;71.00;51.67;;;;;0.53;94.29;97859.81;4917055;28;101806;-73
2022/11/24 11:19:39;;;;;;;;;72.67;52.67;;;;;0.61;94.22;97848.38;4903337;28;102738;-72
2022/11/24 11:22:29;;;;;;;;;64.67;50.33;;;;;0.66;93.58;97857.56;4905210;28;101787;-73
2022/11/24 11:25:37;;;;;;;;;55.67;38.00;;;;;0.77;93.17;97859.94;4897600;28;107685;-73
2022/11/24 11:28:17;;;;;;;;;60.00;45.00;;;;;0.74;93.06;97859.41;4906434;28;101750;-73
2022/11/24 11:31:05;;;;;;;;;75.00;58.25;;;;;0.60;93.24;97860.00;4905847;28;101839;-72
2022/11/24 11:33:59;;;;;;;;;71.33;55.00;;;;;0.59;93.56;97861.81;4895946;28;101955;-73
2022/11/24 11:36:40;;;;;;;;;76.75;58.25;;;;;0.45;94.29;97862.41;4903720;28;107660;-73
2022/11/24 11:39:19;;;;;;;;;73.67;55.67;;;;;0.46;94.54;97866.72;4905133;28;101791;-73
2022/11/24 11:41:51;;;;;;;;;80.25;60.25;;;;;0.44;94.76;97863.41;4902771;28;101709;-73
2022/11/24 11:44:21;;;;;;;;;76.00;57.25;;;;;0.35;95.00;97864.31;4896177;28;103221;-71
2022/11/24 11:46:47;;;;;;;;;71.33;52.67;;;;;0.36;95.12;97860.69;4902054;28;103452;-71
2022/11/24 11:49:15;;;;;;;;;73.33;54.00;;;;;0.37;95.18;97867.66;4899940;28;101879;-73